Time;durP1;ratioP1;P1;durP2;ratioP2;P2;SDS_P1;SDS_P2;PMS_P1;PMS_P2;Temp;Humidity;BMP_temperature;BMP_pressure;BME280_temperature;BME280_humidity;BME280_pressure;Samples;Min_cycle;Max_cycle;Signal;HPM_P1;HPM_P2
2022/12/09 00:13:53;;;;;;;17.48;11.10;;;14.40;89.70;;;;;;6200750;22;1627983;-81
2022/12/09 00:16:20;;;;;;;17.40;11.27;;;14.40;90.20;;;;;;6277955;22;20061;-80
2022/12/09 00:18:46;;;;;;;17.35;11.25;;;14.50;90.10;;;;;;6278152;22;20407;-81
2022/12/09 00:21:21;;;;;;;21.80;11.32;;;14.50;90.10;;;;;;6278273;22;20004;-80
2022/12/09 00:23:48;;;;;;;19.85;11.30;;;14.50;90.10;;;;;;6250773;22;20012;-79
2022/12/09 00:26:15;;;;;;;19.50;11.75;;;14.50;90.20;;;;;;6278041;22;20452;-81
2022/12/09 00:28:41;;;;;;;18.40;11.45;;;14.50;90.20;;;;;;6277889;22;19996;-80
2022/12/09 00:31:11;;;;;;;20.00;10.70;;;14.50;90.30;;;;;;6250927;22;20049;-79
2022/12/09 00:33:37;;;;;;;15.93;10.43;;;14.50;90.30;;;;;;6277760;22;20333;-81
2022/12/09 00:36:09;;;;;;;17.70;9.75;;;14.50;90.30;;;;;;6250705;22;20019;-80
2022/12/09 00:38:35;;;;;;;16.83;11.07;;;14.50;90.60;;;;;;6250664;22;20046;-81
2022/12/09 00:41:02;;;;;;;17.52;10.45;;;14.50;90.20;;;;;;6282947;22;20031;-80
2022/12/09 00:43:27;;;;;;;18.75;10.55;;;14.50;90.40;;;;;;6252682;22;20086;-77
2022/12/09 00:45:53;;;;;;;15.20;10.27;;;14.50;90.30;;;;;;6278027;22;20357;-79
2022/12/09 00:48:19;;;;;;;21.33;10.57;;;14.50;90.40;;;;;;6250295;22;20062;-78
2022/12/09 00:50:45;;;;;;;19.55;10.15;;;14.60;90.40;;;;;;6250546;22;20134;-80
2022/12/09 00:53:11;;;;;;;16.52;10.05;;;14.60;90.50;;;;;;6277193;22;19995;-79
2022/12/09 00:55:37;;;;;;;14.48;8.90;;;14.70;90.60;;;;;;6277587;22;20010;-79
2022/12/09 00:58:02;;;;;;;17.02;7.88;;;14.70;90.60;;;;;;6250349;22;20112;-80
2022/12/09 01:00:28;;;;;;;10.85;5.95;;;14.80;90.60;;;;;;6277605;22;20396;-80
2022/12/09 01:02:54;;;;;;;10.70;4.68;;;14.90;90.80;;;;;;6250647;22;20325;-80
2022/12/09 01:05:19;;;;;;;13.15;4.70;;;15.00;91.20;;;;;;6250436;22;20436;-80
2022/12/09 01:07:45;;;;;;;14.35;4.88;;;15.10;91.30;;;;;;6277280;22;20416;-78
2022/12/09 01:10:11;;;;;;;14.40;4.60;;;15.20;91.40;;;;;;6277717;22;20012;-79
2022/12/09 01:12:37;;;;;;;17.90;4.70;;;15.20;91.60;;;;;;6277277;22;20026;-76
2022/12/09 01:15:04;;;;;;;20.90;4.50;;;15.30;91.80;;;;;;6277312;22;20016;-81
2022/12/09 01:17:30;;;;;;;14.18;4.53;;;15.40;91.90;;;;;;6250247;22;20501;-80
2022/12/09 01:19:56;;;;;;;20.73;4.22;;;15.50;92.10;;;;;;6277590;22;20000;-80
2022/12/09 01:22:22;;;;;;;15.48;4.72;;;15.40;92.20;;;;;;6250367;22;20035;-80
2022/12/09 01:24:48;;;;;;;18.75;5.15;;;15.50;92.70;;;;;;6250167;22;20008;-80
2022/12/09 01:27:14;;;;;;;17.23;4.55;;;15.50;92.60;;;;;;6277500;22;20004;-80
2022/12/09 01:29:39;;;;;;;16.63;4.88;;;15.60;92.70;;;;;;6277050;22;20018;-80
2022/12/09 01:32:05;;;;;;;25.77;5.75;;;15.60;92.90;;;;;;6250120;22;20011;-80
2022/12/09 01:34:31;;;;;;;20.08;4.78;;;15.60;93.00;;;;;;6277215;22;20023;-80
2022/12/09 01:36:56;;;;;;;28.90;5.55;;;15.60;93.20;;;;;;6250205;22;20305;-80
2022/12/09 01:39:22;;;;;;;34.03;5.45;;;15.60;93.30;;;;;;6276898;22;20054;-79
2022/12/09 01:41:50;;;;;;;20.08;5.45;;;15.60;93.50;;;;;;6249805;22;20004;-81
2022/12/09 01:44:22;;;;;;;27.27;5.85;;;15.60;93.60;;;;;;6249866;22;20011;-80
2022/12/09 01:46:52;;;;;;;29.05;6.38;;;15.60;93.70;;;;;;6277251;22;20070;-80
2022/12/09 01:49:24;;;;;;;40.67;8.35;;;15.60;93.80;;;;;;6276764;22;20046;-80
2022/12/09 01:52:17;;;;;;;32.95;7.95;;;15.60;93.90;;;;;;6249874;22;20007;-80
2022/12/09 01:54:45;;;;;;;30.70;7.13;;;15.60;94.00;;;;;;6237772;22;20066;-80
2022/12/09 01:57:11;;;;;;;36.15;8.00;;;15.60;94.20;;;;;;6277050;22;20030;-80
2022/12/09 01:59:37;;;;;;;30.35;8.02;;;15.70;94.40;;;;;;6278873;22;20002;-79
2022/12/09 02:02:07;;;;;;;40.22;8.13;;;15.60;94.40;;;;;;6295184;22;20000;-78
2022/12/09 02:04:38;;;;;;;26.98;7.35;;;15.70;94.60;;;;;;6266473;22;20012;-78
2022/12/09 02:07:08;;;;;;;31.58;6.57;;;15.70;94.70;;;;;;6284341;22;20026;-80
2022/12/09 02:09:34;;;;;;;35.45;7.72;;;15.70;94.80;;;;;;6277404;22;20082;-79
2022/12/09 02:11:59;;;;;;;28.70;7.32;;;15.70;94.90;;;;;;6249855;22;20081;-80
2022/12/09 02:15:04;;;;;;;30.67;7.70;;;15.70;95.00;;;;;;6276646;22;20019;-80
2022/12/09 02:17:42;;;;;;;36.95;8.65;;;15.70;95.10;;;;;;6270792;22;20428;-80
2022/12/09 02:20:17;;;;;;;35.75;7.13;;;15.70;95.10;;;;;;6277093;22;20078;-79
2022/12/09 02:23:04;;;;;;;38.22;7.53;;;15.70;95.20;;;;;;6249615;22;20008;-79
2022/12/09 02:25:40;;;;;;;38.92;8.10;;;15.70;95.40;;;;;;6249448;22;20008;-80
2022/12/09 02:28:33;;;;;;;33.28;7.18;;;15.60;95.40;;;;;;6276766;22;20015;-80
2022/12/09 02:31:30;;;;;;;24.58;5.20;;;15.60;95.60;;;;;;6276423;22;20069;-81
2022/12/09 02:33:56;;;;;;;40.65;7.40;;;15.60;95.60;;;;;;6276489;22;20015;-78
2022/12/09 02:36:27;;;;;;;30.92;7.03;;;15.60;95.80;;;;;;6249498;22;20504;-79
2022/12/09 02:38:53;;;;;;;46.85;8.82;;;15.60;95.80;;;;;;6276409;22;20372;-80
2022/12/09 02:41:24;;;;;;;39.85;8.63;;;15.60;95.80;;;;;;6248871;22;20000;-79
2022/12/09 02:43:58;;;;;;;32.35;7.47;;;15.60;96.00;;;;;;6249432;22;20004;-80
2022/12/09 02:46:26;;;;;;;38.25;7.72;;;15.60;96.10;;;;;;6276341;22;20451;-80
2022/12/09 02:48:54;;;;;;;37.33;7.65;;;15.60;96.10;;;;;;6248961;22;20012;-79
2022/12/09 02:51:22;;;;;;;36.05;8.13;;;15.70;96.20;;;;;;6249002;22;20428;-80
2022/12/09 02:53:52;;;;;;;47.58;8.68;;;15.70;96.30;;;;;;6249299;22;20081;-80
2022/12/09 02:56:20;;;;;;;42.22;8.00;;;15.70;96.40;;;;;;6276362;22;20004;-78
2022/12/09 02:58:47;;;;;;;40.42;8.57;;;15.70;96.40;;;;;;6249072;22;20444;-79
2022/12/09 03:01:32;;;;;;;34.42;7.03;;;15.70;96.60;;;;;;6249169;22;20518;-78
2022/12/09 03:03:58;;;;;;;43.10;7.55;;;15.70;96.60;;;;;;6249268;22;20008;-80
2022/12/09 03:06:29;;;;;;;41.72;7.63;;;15.70;96.60;;;;;;6249256;22;20014;-80
2022/12/09 03:09:08;;;;;;;40.55;8.13;;;15.70;96.80;;;;;;6249295;22;20050;-79
2022/12/09 03:11:35;;;;;;;31.83;7.05;;;15.70;96.70;;;;;;6251540;22;20011;-79
2022/12/09 03:14:15;;;;;;;41.85;8.25;;;15.70;96.80;;;;;;6276607;22;20039;-80
2022/12/09 03:16:55;;;;;;;39.08;7.40;;;15.70;96.80;;;;;;6276194;22;20420;-81
2022/12/09 03:19:42;;;;;;;48.08;9.15;;;15.80;96.90;;;;;;6276186;22;20027;-80
2022/12/09 03:22:16;;;;;;;52.67;8.32;;;15.80;96.90;;;;;;6249056;22;20487;-79
2022/12/09 03:24:59;;;;;;;49.45;8.75;;;15.80;97.10;;;;;;6277688;22;20010;-81
2022/12/09 03:27:28;;;;;;;40.95;8.48;;;15.80;97.20;;;;;;6279989;22;20320;-80
2022/12/09 03:29:56;;;;;;;38.17;7.38;;;15.80;97.10;;;;;;6252470;22;20054;-79
2022/12/09 03:32:25;;;;;;;38.83;7.75;;;15.90;97.20;;;;;;6276006;22;20075;-79
2022/12/09 03:34:57;;;;;;;44.35;8.77;;;15.80;97.20;;;;;;6248931;22;20039;-79
2022/12/09 03:37:23;;;;;;;40.30;7.90;;;15.90;97.30;;;;;;6248904;22;20045;-79
2022/12/09 03:39:50;;;;;;;41.55;8.82;;;15.90;97.40;;;;;;6248764;22;20008;-78
2022/12/09 03:42:23;;;;;;;40.95;9.38;;;15.90;97.40;;;;;;6276249;22;20029;-79
2022/12/09 03:45:00;;;;;;;41.65;9.45;;;16.00;97.30;;;;;;6249397;22;20007;-78
2022/12/09 03:47:26;;;;;;;35.65;7.82;;;15.90;97.50;;;;;;6276273;22;20079;-79
2022/12/09 03:49:53;;;;;;;42.10;9.07;;;16.00;97.50;;;;;;6248846;22;20093;-79
2022/12/09 03:52:24;;;;;;;54.78;9.82;;;16.00;97.60;;;;;;6248735;22;20455;-79
2022/12/09 03:54:57;;;;;;;44.30;8.95;;;16.00;97.60;;;;;;6249020;22;20035;-79
2022/12/09 03:57:24;;;;;;;36.50;8.18;;;16.00;97.60;;;;;;6276053;22;20027;-80
2022/12/09 04:00:00;;;;;;;49.42;9.38;;;16.00;97.70;;;;;;6248576;22;20011;-78
2022/12/09 04:02:27;;;;;;;47.45;8.57;;;16.00;97.70;;;;;;6248760;22;19996;-81
2022/12/09 04:04:52;;;;;;;49.15;10.13;;;16.00;97.70;;;;;;6248802;22;20233;-80
2022/12/09 04:07:18;;;;;;;37.78;7.47;;;16.10;97.70;;;;;;6248932;22;20004;-79
2022/12/09 04:09:44;;;;;;;40.75;8.55;;;16.00;97.70;;;;;;6281539;22;20018;-78
2022/12/09 04:12:10;;;;;;;45.33;8.80;;;16.10;97.70;;;;;;6287687;22;20413;-79
2022/12/09 04:14:36;;;;;;;43.17;8.32;;;16.10;97.70;;;;;;6256703;22;20019;-78
2022/12/09 04:17:02;;;;;;;45.25;8.55;;;16.10;97.70;;;;;;6250187;22;20011;-81
2022/12/09 04:19:27;;;;;;;40.17;9.10;;;16.10;97.70;;;;;;6249042;22;20003;-80
2022/12/09 04:21:53;;;;;;;40.22;9.45;;;16.10;97.70;;;;;;6248951;22;20014;-79
2022/12/09 04:24:19;;;;;;;41.08;9.00;;;16.10;97.70;;;;;;6275397;22;20027;-79
2022/12/09 04:26:44;;;;;;;40.08;7.15;;;16.20;97.70;;;;;;6248581;22;20000;-78
2022/12/09 04:29:11;;;;;;;32.92;7.53;;;16.20;97.70;;;;;;6249553;22;20082;-80
2022/12/09 04:31:37;;;;;;;43.05;8.18;;;16.20;97.80;;;;;;6277588;22;20023;-79
2022/12/09 04:34:03;;;;;;;54.15;8.57;;;16.20;97.70;;;;;;6250795;22;20004;-79
2022/12/09 04:36:29;;;;;;;37.35;7.95;;;16.20;97.70;;;;;;6277794;22;20004;-80
2022/12/09 04:38:55;;;;;;;47.75;8.75;;;16.20;97.70;;;;;;6250482;22;20087;-78
2022/12/09 04:41:21;;;;;;;44.30;9.45;;;16.20;97.70;;;;;;6250536;22;20424;-80
2022/12/09 04:43:47;;;;;;;40.33;7.57;;;16.20;97.70;;;;;;6277409;22;20007;-80
2022/12/09 04:46:15;;;;;;;32.88;7.97;;;16.20;97.70;;;;;;6250863;22;20375;-80
2022/12/09 04:48:43;;;;;;;40.00;9.05;;;16.20;97.70;;;;;;6277973;22;20332;-79
2022/12/09 04:51:10;;;;;;;49.78;8.85;;;16.30;97.70;;;;;;6250401;22;20016;-80
2022/12/09 04:53:37;;;;;;;37.33;7.35;;;16.20;97.80;;;;;;6250404;22;20079;-79
2022/12/09 04:56:05;;;;;;;46.40;9.20;;;16.20;97.80;;;;;;6250569;22;20094;-79
2022/12/09 04:58:31;;;;;;;41.10;7.68;;;16.20;97.70;;;;;;6250482;22;20004;-79
2022/12/09 05:00:57;;;;;;;40.10;8.00;;;16.30;97.80;;;;;;6250564;22;19999;-79
2022/12/09 05:03:23;;;;;;;42.25;7.72;;;16.30;97.70;;;;;;6250412;22;20057;-80
2022/12/09 05:05:49;;;;;;;36.85;7.95;;;16.30;97.60;;;;;;6250334;22;20004;-79
2022/12/09 05:08:16;;;;;;;41.17;7.50;;;16.30;97.60;;;;;;6250220;22;20018;-79
2022/12/09 05:10:46;;;;;;;40.00;7.20;;;16.30;97.60;;;;;;6250571;22;20421;-78
2022/12/09 05:13:12;;;;;;;28.20;6.63;;;16.30;97.80;;;;;;6250254;22;20014;-80
2022/12/09 05:15:38;;;;;;;47.30;8.68;;;16.30;97.60;;;;;;6250194;22;20012;-78
2022/12/09 05:18:04;;;;;;;44.45;9.20;;;16.30;97.70;;;;;;6251175;22;19999;-79
2022/12/09 05:20:29;;;;;;;34.97;7.47;;;16.30;97.80;;;;;;6250336;22;20381;-80
2022/12/09 05:22:55;;;;;;;53.70;9.68;;;16.30;97.70;;;;;;6250484;22;20011;-79
2022/12/09 05:25:22;;;;;;;39.20;7.63;;;16.30;97.70;;;;;;6277003;22;20007;-79
2022/12/09 05:27:48;;;;;;;38.63;8.85;;;16.30;97.70;;;;;;6250195;22;20003;-80
2022/12/09 05:30:14;;;;;;;44.03;8.00;;;16.30;97.70;;;;;;6250257;22;20114;-79
2022/12/09 05:32:40;;;;;;;41.90;8.77;;;16.30;97.70;;;;;;6249913;22;20020;-80
2022/12/09 05:35:06;;;;;;;33.90;7.75;;;16.30;97.70;;;;;;6277195;22;20003;-80
2022/12/09 05:37:32;;;;;;;44.15;7.65;;;16.30;97.70;;;;;;6277085;22;19996;-80
2022/12/09 05:39:58;;;;;;;54.45;8.93;;;16.30;97.70;;;;;;6250154;22;20011;-80
2022/12/09 05:42:23;;;;;;;41.35;7.75;;;16.30;97.70;;;;;;6277214;22;20026;-78
2022/12/09 05:44:49;;;;;;;42.60;8.52;;;16.30;97.70;;;;;;6280660;22;20004;-79
2022/12/09 05:47:15;;;;;;;44.63;7.82;;;16.30;97.60;;;;;;6250353;22;20372;-79
2022/12/09 05:49:41;;;;;;;57.55;9.82;;;16.30;97.60;;;;;;6249598;22;20020;-79
2022/12/09 05:52:08;;;;;;;46.35;9.43;;;16.40;97.60;;;;;;6277071;22;20006;-80
2022/12/09 05:54:34;;;;;;;41.83;8.20;;;16.40;97.40;;;;;;6276732;22;20003;-79
2022/12/09 05:57:02;;;;;;;34.40;7.53;;;16.40;97.30;;;;;;6249579;22;20432;-79
2022/12/09 05:59:28;;;;;;;35.80;6.65;;;16.40;97.30;;;;;;6250083;22;20328;-79
2022/12/09 06:01:54;;;;;;;39.60;7.93;;;16.50;97.20;;;;;;6249896;22;20016;-78
2022/12/09 06:04:20;;;;;;;37.80;7.70;;;16.50;97.10;;;;;;6249665;22;20285;-79
2022/12/09 06:06:45;;;;;;;36.20;6.68;;;16.40;97.00;;;;;;6276640;22;20432;-79
2022/12/09 06:09:11;;;;;;;35.08;6.80;;;16.50;96.90;;;;;;6249673;22;20011;-80
2022/12/09 06:11:38;;;;;;;29.63;6.60;;;16.50;96.90;;;;;;6249830;22;20086;-79
2022/12/09 06:14:07;;;;;;;34.85;7.53;;;16.50;96.70;;;;;;6276483;22;20012;-80
2022/12/09 06:16:33;;;;;;;35.95;7.68;;;16.50;96.70;;;;;;6282775;22;20057;-79
2022/12/09 06:18:58;;;;;;;30.05;7.43;;;16.60;96.60;;;;;;6257831;22;20437;-72
2022/12/09 06:21:24;;;;;;;41.90;7.25;;;16.50;96.40;;;;;;6285101;22;19995;-78
2022/12/09 06:23:50;;;;;;;40.08;8.40;;;16.50;96.30;;;;;;6285310;22;20000;-79
2022/12/09 06:26:24;;;;;;;41.15;8.88;;;16.60;96.30;;;;;;6249694;22;20079;-79
2022/12/09 06:28:50;;;;;;;38.25;6.97;;;16.60;96.40;;;;;;6249142;22;20008;-80
2022/12/09 06:31:17;;;;;;;39.38;8.50;;;16.60;96.20;;;;;;6249358;22;20012;-79
2022/12/09 06:33:42;;;;;;;38.78;7.68;;;16.60;96.20;;;;;;6249369;22;20000;-79
2022/12/09 06:36:09;;;;;;;35.53;7.30;;;16.60;96.30;;;;;;6249662;22;20012;-79
2022/12/09 06:38:35;;;;;;;35.00;7.80;;;16.60;96.20;;;;;;6275996;22;20429;-79
2022/12/09 06:41:05;;;;;;;34.17;7.38;;;16.60;96.20;;;;;;6276063;22;19996;-79
2022/12/09 06:43:31;;;;;;;29.95;6.78;;;16.50;96.20;;;;;;6249314;22;20011;-79
2022/12/09 06:45:57;;;;;;;39.80;8.02;;;16.50;96.20;;;;;;6249123;22;20090;-80
2022/12/09 06:48:22;;;;;;;47.20;7.65;;;16.50;96.20;;;;;;6249042;22;20062;-80
2022/12/09 06:50:50;;;;;;;39.03;7.15;;;16.60;96.20;;;;;;6276122;22;20018;-80
2022/12/09 06:53:15;;;;;;;31.30;7.18;;;16.50;96.10;;;;;;6248932;22;20083;-80
2022/12/09 06:55:41;;;;;;;36.08;7.00;;;16.50;96.10;;;;;;6248717;22;20024;-86
2022/12/09 06:58:07;;;;;;;44.05;7.75;;;16.60;96.20;;;;;;6234056;22;20050;-79
2022/12/09 07:00:33;;;;;;;34.00;6.45;;;16.60;96.10;;;;;;6247814;22;20012;-89
2022/12/09 07:02:58;;;;;;;32.80;6.93;;;16.60;96.20;;;;;;6251022;22;20010;-82
2022/12/09 07:05:24;;;;;;;30.40;5.50;;;16.60;96.10;;;;;;6277669;22;19999;-80
2022/12/09 07:07:51;;;;;;;35.50;6.68;;;16.60;96.10;;;;;;6278338;22;20360;-80
2022/12/09 07:10:18;;;;;;;37.05;6.68;;;16.70;96.10;;;;;;6276927;22;20471;-79
2022/12/09 07:12:43;;;;;;;36.95;8.05;;;16.70;96.00;;;;;;6248347;22;20498;-78
2022/12/09 07:15:10;;;;;;;42.92;8.32;;;16.70;96.10;;;;;;6248743;22;20016;-79
2022/12/09 07:17:36;;;;;;;29.48;6.57;;;16.80;96.10;;;;;;6275772;22;20032;-80
2022/12/09 07:20:02;;;;;;;34.33;7.03;;;16.80;96.10;;;;;;6248650;22;20011;-83
2022/12/09 07:22:28;;;;;;;54.60;8.52;;;16.90;96.00;;;;;;6249957;22;20074;-84
2022/12/09 07:24:53;;;;;;;41.25;6.97;;;16.90;95.80;;;;;;6250525;22;20436;-83
2022/12/09 07:27:19;;;;;;;31.10;7.20;;;16.90;95.80;;;;;;6251618;22;20343;-88
2022/12/09 07:29:45;;;;;;;36.45;7.22;;;17.00;95.80;;;;;;6251899;22;20019;-84
2022/12/09 07:32:11;;;;;;;38.97;7.25;;;17.00;95.70;;;;;;6251436;22;20000;-88
2022/12/09 07:34:37;;;;;;;41.17;5.85;;;17.00;95.60;;;;;;6252201;22;20491;-84
2022/12/09 07:37:03;;;;;;;31.23;7.45;;;17.10;95.60;;;;;;6250485;22;20004;-84
2022/12/09 07:39:29;;;;;;;29.80;6.32;;;17.10;95.40;;;;;;6280514;22;20003;-87
2022/12/09 07:41:56;;;;;;;39.22;6.68;;;17.20;95.40;;;;;;6282938;22;20435;-87
2022/12/09 07:44:23;;;;;;;41.00;6.00;;;17.20;95.30;;;;;;6256098;22;20030;-86
2022/12/09 07:46:49;;;;;;;36.17;6.43;;;17.20;95.20;;;;;;6255411;22;20031;-85
2022/12/09 07:49:15;;;;;;;37.15;6.28;;;17.30;95.10;;;;;;6255917;22;20008;-85
2022/12/09 07:51:41;;;;;;;32.55;6.85;;;17.30;95.10;;;;;;6259548;22;20355;-86
2022/12/09 07:54:11;;;;;;;34.45;6.47;;;17.40;95.00;;;;;;6276907;22;20027;-86
2022/12/09 07:56:37;;;;;;;31.85;5.65;;;17.40;94.90;;;;;;6276688;22;20083;-84
2022/12/09 07:59:06;;;;;;;32.88;6.15;;;17.50;94.80;;;;;;6249380;22;20087;-88
2022/12/09 08:01:32;;;;;;;30.52;6.50;;;17.50;94.70;;;;;;6250260;22;19999;-84
2022/12/09 08:03:57;;;;;;;33.80;6.75;;;17.60;94.60;;;;;;6250907;22;20065;-85
2022/12/09 08:06:25;;;;;;;36.05;6.13;;;17.60;94.50;;;;;;6251773;22;20011;-84
2022/12/09 08:08:51;;;;;;;40.75;7.60;;;17.60;94.50;;;;;;6279226;22;20004;-85
2022/12/09 08:11:22;;;;;;;35.63;6.32;;;17.60;94.80;;;;;;6280426;22;20003;-86
2022/12/09 08:13:48;;;;;;;38.95;7.72;;;17.70;94.50;;;;;;6254033;22;20015;-86
2022/12/09 08:16:16;;;;;;;32.63;6.53;;;17.70;94.40;;;;;;6279547;22;20011;-82
2022/12/09 08:18:43;;;;;;;49.85;9.05;;;17.70;94.30;;;;;;6278547;22;20003;-86
2022/12/09 08:21:11;;;;;;;47.05;6.88;;;17.70;94.30;;;;;;6251413;22;20098;-84
2022/12/09 08:23:38;;;;;;;42.45;7.53;;;17.70;94.20;;;;;;6284519;22;20011;-83
2022/12/09 08:26:04;;;;;;;39.20;7.15;;;17.70;94.30;;;;;;6261506;22;20004;-82
2022/12/09 08:28:30;;;;;;;38.20;7.35;;;17.70;94.30;;;;;;6261347;22;20007;-82
2022/12/09 08:30:57;;;;;;;34.72;5.85;;;17.70;94.30;;;;;;6286845;22;20487;-82
2022/12/09 08:33:23;;;;;;;50.90;9.15;;;17.70;94.20;;;;;;6279563;22;20028;-83
2022/12/09 08:35:49;;;;;;;41.30;7.65;;;17.80;94.20;;;;;;6278897;22;20370;-83
2022/12/09 08:38:14;;;;;;;34.92;7.22;;;17.80;94.10;;;;;;6277766;22;20010;-84
2022/12/09 08:40:40;;;;;;;37.72;7.30;;;17.80;94.00;;;;;;6278130;22;20437;-84
2022/12/09 08:43:07;;;;;;;45.53;7.90;;;17.90;94.00;;;;;;6278444;22;20000;-84
2022/12/09 08:45:40;;;;;;;37.20;8.10;;;17.90;93.90;;;;;;6251058;22;20065;-84
2022/12/09 08:48:06;;;;;;;39.75;6.90;;;17.90;93.90;;;;;;6250908;22;20141;-83
2022/12/09 08:50:32;;;;;;;45.97;9.88;;;17.90;93.80;;;;;;6250624;22;20170;-84
2022/12/09 08:52:58;;;;;;;40.00;6.93;;;17.90;93.80;;;;;;6278415;22;20436;-83
2022/12/09 08:55:24;;;;;;;37.80;6.90;;;17.80;93.80;;;;;;6250587;22;20462;-83
2022/12/09 08:57:50;;;;;;;38.17;6.88;;;17.90;93.70;;;;;;6251529;22;20007;-82
2022/12/09 09:00:17;;;;;;;31.08;6.65;;;17.90;93.80;;;;;;6252769;22;20012;-84
2022/12/09 09:02:43;;;;;;;36.15;6.75;;;17.90;93.80;;;;;;6252383;22;20008;-84
2022/12/09 09:05:08;;;;;;;37.10;8.88;;;17.90;93.60;;;;;;6277666;22;20003;-83
2022/12/09 09:07:34;;;;;;;41.38;7.03;;;18.00;93.70;;;;;;6250677;22;20004;-83
2022/12/09 09:10:01;;;;;;;31.75;6.63;;;17.90;93.70;;;;;;6278047;22;20012;-82
2022/12/09 09:12:27;;;;;;;37.03;6.97;;;18.00;93.60;;;;;;6251375;22;20008;-82
2022/12/09 09:14:53;;;;;;;39.72;7.20;;;18.00;93.60;;;;;;6249377;22;20098;-84
2022/12/09 09:17:20;;;;;;;54.00;9.10;;;18.00;93.50;;;;;;6277241;22;20082;-84
2022/12/09 09:19:46;;;;;;;29.08;6.97;;;18.00;93.50;;;;;;6276989;22;20015;-84
2022/12/09 09:22:12;;;;;;;39.72;6.43;;;18.00;93.40;;;;;;6250161;22;20012;-83
2022/12/09 09:24:37;;;;;;;40.47;6.40;;;18.10;93.50;;;;;;6277607;22;20006;-83
2022/12/09 09:27:03;;;;;;;38.60;7.50;;;18.10;93.40;;;;;;6277290;22;20458;-84
2022/12/09 09:29:29;;;;;;;31.98;5.55;;;18.10;93.40;;;;;;6277015;22;20011;-84
2022/12/09 09:31:56;;;;;;;32.60;6.43;;;18.00;93.40;;;;;;6250211;22;20372;-81
2022/12/09 09:34:22;;;;;;;36.38;6.32;;;18.00;93.60;;;;;;6250472;22;20083;-82
2022/12/09 09:36:48;;;;;;;30.80;6.07;;;18.00;93.60;;;;;;6250532;22;20004;-83
2022/12/09 09:39:14;;;;;;;38.80;6.25;;;18.00;93.70;;;;;;6250281;22;20011;-84
2022/12/09 09:41:53;;;;;;;32.30;5.60;;;18.00;93.80;;;;;;6249987;22;20035;-85
2022/12/09 09:44:44;;;;;;;36.35;5.97;;;18.00;93.80;;;;;;6249975;22;20004;-83
2022/12/09 09:47:42;;;;;;;38.88;6.20;;;18.00;93.70;;;;;;6276816;22;20000;-84
2022/12/09 09:50:42;;;;;;;31.95;5.70;;;18.10;93.70;;;;;;6249979;22;20016;-83
2022/12/09 09:53:30;;;;;;;30.05;6.22;;;18.10;93.80;;;;;;6249781;22;20007;-86
2022/12/09 09:56:06;;;;;;;29.60;6.13;;;18.10;94.00;;;;;;6250907;22;20003;-82
2022/12/09 09:58:50;;;;;;;31.20;6.25;;;18.10;93.90;;;;;;6279529;22;20447;-84
2022/12/09 10:01:17;;;;;;;29.10;6.03;;;18.10;93.90;;;;;;6250469;22;20004;-84
2022/12/09 10:04:07;;;;;;;40.97;7.07;;;18.00;94.10;;;;;;6276545;22;20061;-83
2022/12/09 10:06:58;;;;;;;30.05;6.15;;;18.00;94.00;;;;;;6249995;22;20062;-83
2022/12/09 10:09:31;;;;;;;34.30;5.70;;;18.10;94.00;;;;;;6277847;22;20079;-84
2022/12/09 10:12:04;;;;;;;29.42;5.70;;;18.10;94.10;;;;;;6253100;22;20035;-83
2022/12/09 10:14:30;;;;;;;36.72;7.10;;;18.20;94.10;;;;;;6245355;23;20032;-84
2022/12/09 10:17:14;;;;;;;29.92;6.95;;;18.10;94.10;;;;;;6246469;23;20397;-84
2022/12/09 10:19:47;;;;;;;33.25;7.15;;;18.10;94.10;;;;;;6244416;23;20016;-85
2022/12/09 10:22:27;;;;;;;27.00;5.65;;;18.10;94.20;;;;;;6244645;23;20000;-83
2022/12/09 10:24:57;;;;;;;32.35;6.05;;;18.10;94.20;;;;;;6246924;23;20004;-84
2022/12/09 10:27:57;;;;;;;32.80;6.13;;;18.10;94.30;;;;;;6244635;23;20011;-84
2022/12/09 10:30:23;;;;;;;25.58;5.85;;;18.10;94.20;;;;;;6228819;23;20471;-84
2022/12/09 10:32:49;;;;;;;30.02;6.05;;;18.20;94.30;;;;;;6261865;23;20047;-82
2022/12/09 10:35:21;;;;;;;31.88;5.75;;;18.20;94.20;;;;;;6264867;23;19995;-84
2022/12/09 10:37:50;;;;;;;34.13;6.68;;;18.30;94.20;;;;;;6250542;23;20012;-84
2022/12/09 10:40:19;;;;;;;32.40;5.80;;;18.30;94.10;;;;;;6247570;23;20034;-83
2022/12/09 10:45:33;;;;;;;34.85;6.68;;;18.40;94.10;;;;;;6246496;23;20022;-83
2022/12/09 10:47:59;;;;;;;26.25;5.93;;;18.40;94.10;;;;;;6246464;23;20036;-84
2022/12/09 10:50:30;;;;;;;27.52;5.57;;;18.40;94.10;;;;;;6244599;23;20016;-85
2022/12/09 10:52:58;;;;;;;31.73;6.60;;;18.40;94.00;;;;;;6246478;23;19996;-83
2022/12/09 10:55:31;;;;;;;32.40;6.70;;;18.40;94.00;;;;;;6246887;23;20008;-83
2022/12/09 10:58:21;;;;;;;30.83;5.65;;;18.40;94.00;;;;;;6247656;23;20004;-84
2022/12/09 11:01:10;;;;;;;31.33;6.55;;;18.40;93.80;;;;;;6246554;23;20004;-83
2022/12/09 11:03:53;;;;;;;26.55;5.57;;;18.50;94.00;;;;;;6250194;23;20004;-82
2022/12/09 11:06:29;;;;;;;31.48;5.82;;;18.50;94.00;;;;;;6244300;23;20314;-84
2022/12/09 11:09:00;;;;;;;33.85;7.90;;;18.40;93.90;;;;;;6246350;23;19996;-82
2022/12/09 11:11:49;;;;;;;28.25;6.60;;;18.50;94.00;;;;;;6248357;23;20019;-82
2022/12/09 11:14:34;;;;;;;38.10;6.32;;;18.50;93.90;;;;;;6259939;22;20016;-84
2022/12/09 11:17:29;;;;;;;25.67;5.10;;;18.60;93.80;;;;;;6277090;22;19996;-84
2022/12/09 11:20:19;;;;;;;35.58;7.30;;;18.60;93.70;;;;;;6249336;22;20803;-84
2022/12/09 11:23:17;;;;;;;28.65;5.35;;;18.60;93.70;;;;;;6276332;22;20072;-82
2022/12/09 11:25:53;;;;;;;34.65;6.53;;;18.70;93.70;;;;;;6248209;22;20097;-83
2022/12/09 11:28:22;;;;;;;27.75;6.28;;;18.70;93.60;;;;;;6249705;22;20108;-83
2022/12/09 11:30:51;;;;;;;38.42;7.40;;;18.80;93.70;;;;;;6276460;22;20031;-84
2022/12/09 11:33:24;;;;;;;41.63;6.78;;;18.80;93.60;;;;;;6277150;22;20026;-84
2022/12/09 11:36:17;;;;;;;34.13;6.40;;;18.80;93.50;;;;;;6277290;22;20448;-84
2022/12/09 11:38:46;;;;;;;33.10;6.73;;;18.80;93.50;;;;;;6276679;22;20074;-84
2022/12/09 11:44:26;;;;;;;30.02;6.38;;;19.00;93.20;;;;;;6276937;22;20069;-84
2022/12/09 11:47:11;;;;;;;38.83;7.68;;;19.00;93.20;;;;;;6249523;22;20430;-84
2022/12/09 11:49:57;;;;;;;30.88;5.63;;;19.00;93.00;;;;;;6249124;22;20094;-83
2022/12/09 11:52:27;;;;;;;39.28;7.13;;;19.00;93.00;;;;;;6276705;22;20075;-84
2022/12/09 11:55:10;;;;;;;27.02;5.82;;;18.90;93.00;;;;;;6276692;22;20109;-83
2022/12/09 11:57:51;;;;;;;34.22;6.25;;;18.90;93.00;;;;;;6276469;22;20007;-84
2022/12/09 12:00:18;;;;;;;35.63;6.97;;;18.90;93.00;;;;;;6248754;22;20014;-83
2022/12/09 12:02:59;;;;;;;32.35;7.63;;;18.80;93.00;;;;;;6276018;22;20425;-82
2022/12/09 12:05:36;;;;;;;34.88;9.02;;;18.80;93.10;;;;;;6248487;22;20114;-83
2022/12/09 12:08:24;;;;;;;37.35;7.47;;;18.70;93.20;;;;;;6248098;22;20003;-82
2022/12/09 12:11:06;;;;;;;40.17;6.32;;;18.60;93.40;;;;;;6247956;22;20154;-84
2022/12/09 12:13:47;;;;;;;39.95;7.60;;;18.60;93.40;;;;;;6248117;22;20022;-81
2022/12/09 12:16:57;;;;;;;29.55;6.85;;;18.50;93.70;;;;;;6275130;22;20006;-83
2022/12/09 12:19:33;;;;;;;34.83;8.10;;;18.50;93.60;;;;;;6268135;22;20015;-84
2022/12/09 12:22:36;;;;;;;31.00;7.35;;;18.50;93.80;;;;;;6275266;22;19999;-82
2022/12/09 12:25:23;;;;;;;27.05;6.50;;;18.50;93.70;;;;;;6248222;22;20004;-84
2022/12/09 12:28:03;;;;;;;33.65;6.72;;;18.60;93.80;;;;;;6275548;22;20003;-78
2022/12/09 12:30:56;;;;;;;35.15;6.03;;;18.60;94.00;;;;;;6248057;22;20351;-81
2022/12/09 12:33:54;;;;;;;33.17;6.47;;;18.60;93.90;;;;;;6275585;22;20006;-83
2022/12/09 12:36:45;;;;;;;35.55;8.02;;;18.60;93.90;;;;;;6248341;22;20623;-83
2022/12/09 12:39:19;;;;;;;32.85;7.13;;;18.60;94.10;;;;;;6248896;22;20004;-84
2022/12/09 12:41:54;;;;;;;39.47;6.97;;;18.50;94.00;;;;;;6248025;22;20014;-83
2022/12/09 12:47:33;;;;;;;36.55;6.75;;;18.50;94.10;;;;;;6275657;22;20061;-83
2022/12/09 12:49:58;;;;;;;30.73;5.75;;;18.40;94.20;;;;;;6248782;22;20388;-84
2022/12/09 12:52:36;;;;;;;35.10;6.30;;;18.40;94.40;;;;;;6277125;22;19996;-83
2022/12/09 12:55:39;;;;;;;35.13;7.22;;;18.40;94.20;;;;;;6251061;22;20046;-83
2022/12/09 12:58:30;;;;;;;33.38;6.13;;;18.30;94.20;;;;;;6277617;22;20006;-83
2022/12/09 13:01:01;;;;;;;42.75;7.88;;;18.30;94.20;;;;;;6250230;22;20440;-84
2022/12/09 13:03:41;;;;;;;35.00;7.30;;;18.30;94.30;;;;;;6249874;22;20060;-83
2022/12/09 13:06:12;;;;;;;43.75;7.40;;;18.30;94.30;;;;;;6277970;22;20003;-84
2022/12/09 13:08:51;;;;;;;38.03;6.75;;;18.20;94.30;;;;;;6249918;22;20037;-85
2022/12/09 13:11:26;;;;;;;41.53;7.40;;;18.20;94.40;;;;;;6253081;22;20019;-82
2022/12/09 13:14:06;;;;;;;41.03;7.20;;;18.30;94.40;;;;;;6251935;22;20020;-84
2022/12/09 13:16:37;;;;;;;40.42;7.03;;;18.20;94.40;;;;;;6280260;22;20082;-83